Terminal Aerodrome Forecast
Issued by NWS

Home | Current Version | Previous Version | Graphics & Text | Print | Product List | Glossary On
Versions: 1 2 3 4 5 6 7 8 9 10 11 12 13
000
FTUS45 KGGW 250522 AAB
TAFSDY
TAF AMD
KSDY 250522Z 2505/2606 36006KT 5SM -SHRA SCT030 BKN070
      TEMPO 2512/2515 3SM SHRA OVC020
     FM252100 35010KT P6SM VCSH SCT020 OVC040
     FM260000 35009KT P6SM BKN070
      AMD LTD TO CLD VIS AND WIND=

USA.gov is the U.S. government's official web portal to all federal, state and local government web resources and services.